Time;durP1;ratioP1;P1;durP2;ratioP2;P2;SDS_P1;SDS_P2;PMS_P1;PMS_P2;Temp;Humidity;BMP_temperature;BMP_pressure;BME280_temperature;BME280_humidity;BME280_pressure;Samples;Min_cycle;Max_cycle;Signal;HPM_P1;HPM_P2
2023/02/26 00:01:57;;;;;;;7.63;5.27;;;3.10;99.90;;;;;;4211184;28;20264;-67
2023/02/26 00:04:03;;;;;;;9.83;5.47;;;3.10;99.90;;;;;;4212372;28;20318;-65
2023/02/26 00:06:05;;;;;;;8.90;5.87;;;3.10;99.90;;;;;;4211344;28;20323;-62
2023/02/26 00:08:06;;;;;;;7.73;5.17;;;3.10;99.90;;;;;;4212289;28;20322;-62
2023/02/26 00:10:11;;;;;;;7.10;5.00;;;3.10;99.90;;;;;;4211301;28;20260;-62
2023/02/26 00:12:12;;;;;;;9.17;5.33;;;3.10;99.90;;;;;;4212318;28;20306;-67
2023/02/26 00:14:15;;;;;;;9.13;5.30;;;3.10;99.90;;;;;;4211831;28;20314;-63
2023/02/26 00:16:28;;;;;;;6.93;4.17;;;3.10;99.90;;;;;;4211564;28;20337;-62
2023/02/26 00:18:29;;;;;;;5.07;3.70;;;3.10;99.90;;;;;;4211828;28;20306;-66
2023/02/26 00:20:31;;;;;;;5.50;4.00;;;3.10;99.90;;;;;;4211380;28;20265;-67
2023/02/26 00:22:32;;;;;;;8.43;4.53;;;3.10;99.90;;;;;;4212032;28;20272;-65
2023/02/26 00:24:33;;;;;;;7.73;4.53;;;3.10;99.90;;;;;;4210561;28;20852;-62
2023/02/26 00:26:35;;;;;;;7.30;4.70;;;3.10;99.90;;;;;;4212303;28;20257;-63
2023/02/26 00:28:36;;;;;;;6.40;3.57;;;3.10;99.90;;;;;;4210882;28;20330;-62
2023/02/26 00:30:38;;;;;;;7.53;4.30;;;3.10;99.90;;;;;;4210867;28;20330;-63
2023/02/26 00:32:40;;;;;;;7.53;4.37;;;3.10;99.90;;;;;;4210978;28;20313;-64
2023/02/26 00:34:42;;;;;;;14.43;6.97;;;3.10;99.90;;;;;;4211825;28;20257;-63
2023/02/26 00:36:43;;;;;;;9.40;5.50;;;3.10;99.90;;;;;;4211096;28;20280;-63
2023/02/26 00:38:54;;;;;;;7.83;4.20;;;3.10;99.90;;;;;;4211964;28;20269;-66
2023/02/26 00:40:55;;;;;;;13.38;6.05;;;3.10;99.90;;;;;;4210794;28;20853;-63
2023/02/26 00:42:57;;;;;;;5.67;4.00;;;3.20;99.90;;;;;;4212220;28;20028;-65
2023/02/26 00:44:58;;;;;;;8.33;5.20;;;3.10;99.90;;;;;;4210466;28;20701;-64
2023/02/26 00:47:24;;;;;;;6.43;4.47;;;3.20;99.90;;;;;;4211186;28;20276;-64
2023/02/26 00:49:37;;;;;;;4.73;2.73;;;3.20;99.90;;;;;;4209050;28;20337;-62
2023/02/26 00:51:50;;;;;;;4.50;3.00;;;3.20;99.90;;;;;;4211933;28;20314;-62
2023/02/26 00:54:10;;;;;;;5.47;2.80;;;3.20;99.90;;;;;;4210368;28;20257;-62
2023/02/26 00:56:13;;;;;;;4.05;3.03;;;3.20;99.90;;;;;;4211614;28;21081;-63
2023/02/26 00:58:14;;;;;;;3.13;2.40;;;3.20;99.90;;;;;;4210719;28;20496;-62
2023/02/26 01:00:16;;;;;;;4.83;2.40;;;3.20;99.90;;;;;;4211780;28;20253;-62
2023/02/26 01:02:17;;;;;;;3.53;2.40;;;3.20;99.90;;;;;;4210625;28;20269;-62
2023/02/26 01:04:20;;;;;;;3.87;2.53;;;3.20;99.90;;;;;;4211307;28;20268;-63
2023/02/26 01:06:26;;;;;;;2.93;2.47;;;3.20;99.90;;;;;;4210802;28;20261;-66
2023/02/26 01:08:41;;;;;;;3.80;2.50;;;3.20;99.90;;;;;;4211045;28;20265;-68
2023/02/26 01:10:43;;;;;;;2.77;1.80;;;3.20;99.90;;;;;;4210614;28;20744;-62
2023/02/26 01:12:44;;;;;;;3.37;2.23;;;3.20;99.90;;;;;;4211497;28;20273;-62
2023/02/26 01:14:46;;;;;;;2.50;1.90;;;3.30;99.90;;;;;;4209085;28;20310;-61
2023/02/26 01:17:25;;;;;;;2.27;2.03;;;3.20;99.90;;;;;;4210413;28;20284;-61
2023/02/26 01:19:29;;;;;;;4.63;2.53;;;3.20;99.90;;;;;;4187104;28;20303;-61
2023/02/26 01:21:40;;;;;;;1.77;1.40;;;3.20;99.90;;;;;;4210958;28;20264;-62
2023/02/26 01:23:45;;;;;;;;;;;3.20;99.90;;;;;;4211023;28;20764;-62
2023/02/26 01:25:49;;;;;;;4.53;2.63;;;3.20;99.90;;;;;;4210753;28;19904;-62
2023/02/26 01:27:50;;;;;;;2.67;1.83;;;3.20;99.90;;;;;;4210876;28;20715;-63
2023/02/26 01:29:52;;;;;;;3.53;2.33;;;3.10;99.90;;;;;;4210500;28;20318;-67
2023/02/26 01:32:00;;;;;;;2.53;2.03;;;3.10;99.90;;;;;;4211042;28;20760;-62
2023/02/26 01:34:27;;;;;;;4.43;2.00;;;3.10;99.90;;;;;;4210217;28;20313;-61
2023/02/26 01:36:35;;;;;;;1.73;1.20;;;3.00;99.90;;;;;;4210559;28;20778;-62
2023/02/26 01:38:55;;;;;;;2.53;1.73;;;3.00;99.90;;;;;;4210678;28;20264;-62
2023/02/26 01:41:33;;;;;;;2.10;1.58;;;2.90;99.90;;;;;;4210454;28;20261;-62
2023/02/26 01:44:21;;;;;;;2.60;1.73;;;2.80;99.90;;;;;;4211520;28;20028;-63
2023/02/26 01:46:34;;;;;;;2.30;1.80;;;2.80;99.90;;;;;;4174774;28;20308;-66
2023/02/26 01:48:56;;;;;;;4.77;2.40;;;2.80;99.90;;;;;;4201474;28;20302;-61
2023/02/26 01:50:57;;;;;;;4.00;2.43;;;2.80;99.90;;;;;;4210481;28;20265;-62
2023/02/26 01:53:10;;;;;;;2.37;2.10;;;2.70;99.90;;;;;;4211206;28;20330;-62
2023/02/26 01:55:11;;;;;;;3.37;1.70;;;2.70;99.90;;;;;;4208416;28;20285;-62
2023/02/26 01:57:18;;;;;;;5.13;1.77;;;2.70;99.90;;;;;;4210680;28;20318;-62
2023/02/26 01:59:23;;;;;;;2.40;1.80;;;2.70;99.90;;;;;;4209774;28;20282;-64
2023/02/26 02:01:24;;;;;;;2.13;1.93;;;2.70;99.90;;;;;;4211471;28;20334;-62
2023/02/26 02:03:27;;;;;;;1.73;1.30;;;2.70;99.90;;;;;;4209999;28;20298;-62
2023/02/26 02:05:41;;;;;;;1.40;1.23;;;2.60;99.90;;;;;;4211195;28;20318;-62
2023/02/26 02:07:43;;;;;;;2.20;1.37;;;2.60;99.90;;;;;;4209982;28;20342;-67
2023/02/26 02:09:44;;;;;;;2.33;1.23;;;2.60;99.90;;;;;;4210971;28;20269;-62
2023/02/26 02:12:10;;;;;;;2.10;1.80;;;2.60;99.90;;;;;;4210529;28;20265;-63
2023/02/26 02:14:23;;;;;;;2.03;1.60;;;2.50;99.90;;;;;;4200911;28;20285;-62
2023/02/26 02:16:46;;;;;;;1.93;1.40;;;2.50;99.90;;;;;;4209926;28;20302;-63
2023/02/26 02:19:09;;;;;;;3.87;1.43;;;2.50;99.90;;;;;;4211000;28;20261;-62
2023/02/26 02:21:56;;;;;;;2.47;1.73;;;2.50;99.90;;;;;;4211792;28;20342;-62
2023/02/26 02:24:11;;;;;;;2.40;1.57;;;2.50;99.90;;;;;;4213222;28;20345;-64
2023/02/26 02:26:13;;;;;;;1.63;0.93;;;2.50;99.90;;;;;;4213455;28;20269;-62
2023/02/26 02:28:36;;;;;;;3.17;1.33;;;2.50;99.90;;;;;;4213668;28;20293;-61
2023/02/26 02:31:05;;;;;;;2.03;1.50;;;2.50;99.90;;;;;;4213443;28;20257;-61
2023/02/26 02:33:16;;;;;;;3.00;1.60;;;2.50;99.90;;;;;;4212809;28;20589;-62
2023/02/26 02:35:42;;;;;;;1.53;1.10;;;2.50;99.90;;;;;;4213537;28;20268;-61
2023/02/26 02:38:07;;;;;;;1.53;1.20;;;2.50;99.90;;;;;;4205116;28;20302;-61
2023/02/26 02:40:17;;;;;;;1.87;1.67;;;2.40;99.90;;;;;;4213830;28;20306;-63
2023/02/26 02:42:21;;;;;;;2.50;1.90;;;2.40;99.90;;;;;;4213118;28;21058;-65
2023/02/26 02:44:25;;;;;;;2.87;2.00;;;2.40;99.90;;;;;;4213962;28;20077;-62
2023/02/26 02:46:30;;;;;;;2.60;2.00;;;2.30;99.90;;;;;;4212608;28;20310;-61
2023/02/26 02:48:42;;;;;;;1.93;1.70;;;2.40;99.90;;;;;;4213217;28;20273;-62
2023/02/26 02:51:06;;;;;;;2.93;2.10;;;2.40;99.90;;;;;;4212266;28;20346;-61
2023/02/26 02:53:16;;;;;;;2.77;2.00;;;2.30;99.90;;;;;;4213621;28;20306;-62
2023/02/26 02:55:40;;;;;;;3.70;2.03;;;2.30;99.90;;;;;;4212309;28;20265;-61
2023/02/26 02:57:50;;;;;;;3.67;1.73;;;2.30;99.90;;;;;;4213323;28;20287;-62
2023/02/26 03:00:00;;;;;;;1.23;1.08;;;2.30;99.90;;;;;;4212303;28;20317;-63
2023/02/26 03:02:16;;;;;;;1.30;1.20;;;2.30;99.90;;;;;;4213440;28;20116;-61
2023/02/26 03:04:18;;;;;;;1.83;1.43;;;2.30;99.90;;;;;;4211672;28;20040;-63
2023/02/26 03:06:20;;;;;;;1.37;1.10;;;2.30;99.90;;;;;;4213240;28;20314;-63
2023/02/26 03:08:29;;;;;;;1.93;1.40;;;2.30;99.90;;;;;;4211893;28;20365;-62
2023/02/26 03:10:31;;;;;;;2.07;1.67;;;2.30;99.90;;;;;;4213279;28;20370;-62
2023/02/26 03:12:32;;;;;;;1.90;1.40;;;2.30;99.90;;;;;;4212658;28;20290;-63
2023/02/26 03:14:34;;;;;;;1.10;0.90;;;2.30;99.90;;;;;;4213150;28;20326;-62
2023/02/26 03:17:09;;;;;;;2.53;1.37;;;2.20;99.90;;;;;;4211870;28;20318;-62
2023/02/26 03:19:39;;;;;;;2.53;1.23;;;2.20;99.90;;;;;;4213119;28;20666;-62
2023/02/26 03:21:52;;;;;;;1.87;1.20;;;2.20;99.90;;;;;;4193786;28;21055;-62
2023/02/26 03:24:25;;;;;;;2.30;1.27;;;2.20;99.90;;;;;;4213017;28;20302;-61
2023/02/26 03:26:38;;;;;;;2.13;1.23;;;2.20;99.90;;;;;;4212071;28;20249;-63
2023/02/26 03:28:45;;;;;;;2.80;1.57;;;2.30;99.90;;;;;;4212495;28;20298;-62
2023/02/26 03:31:01;;;;;;;1.80;1.50;;;2.30;99.90;;;;;;4210813;28;20281;-62
2023/02/26 03:33:14;;;;;;;2.33;1.63;;;2.30;99.90;;;;;;4212808;28;20667;-62
2023/02/26 03:35:44;;;;;;;1.70;1.60;;;2.20;99.90;;;;;;4211563;28;20265;-61
2023/02/26 03:37:52;;;;;;;1.43;1.07;;;2.30;99.90;;;;;;4212456;28;21046;-61
2023/02/26 03:39:56;;;;;;;2.07;1.40;;;2.20;99.90;;;;;;4212300;28;20276;-62
2023/02/26 03:42:14;;;;;;;1.50;1.27;;;2.20;99.90;;;;;;4212521;28;20334;-62
2023/02/26 03:44:23;;;;;;;2.07;1.10;;;2.20;99.90;;;;;;4211140;28;20260;-61
2023/02/26 03:46:38;;;;;;;2.60;1.23;;;2.20;99.90;;;;;;4211965;28;20277;-65
2023/02/26 03:48:41;;;;;;;2.00;1.37;;;2.10;99.90;;;;;;4211979;28;20276;-68
2023/02/26 03:50:46;;;;;;;1.57;1.30;;;2.10;99.90;;;;;;4212115;28;20245;-67
2023/02/26 03:52:50;;;;;;;1.77;0.83;;;2.10;99.90;;;;;;4211987;28;20302;-67
2023/02/26 03:55:00;;;;;;;1.47;1.03;;;2.10;99.90;;;;;;4212189;28;20257;-66
2023/02/26 03:57:01;;;;;;;1.55;1.02;;;2.10;99.90;;;;;;4211534;28;20304;-65
2023/02/26 03:59:02;;;;;;;1.20;0.87;;;2.00;99.90;;;;;;4212202;28;20156;-65
2023/02/26 04:01:10;;;;;;;1.33;0.83;;;2.00;99.90;;;;;;4211480;28;20276;-67
2023/02/26 04:03:20;;;;;;;1.20;0.73;;;2.00;99.90;;;;;;4212342;28;20284;-62
2023/02/26 04:05:28;;;;;;;1.10;0.77;;;1.90;99.90;;;;;;4211285;28;20261;-61
2023/02/26 04:07:30;;;;;;;1.30;0.80;;;1.80;99.90;;;;;;4212583;28;20040;-62
2023/02/26 04:09:31;;;;;;;0.80;0.60;;;1.80;99.90;;;;;;4211270;28;20264;-63
2023/02/26 04:11:33;;;;;;;1.07;0.70;;;1.80;99.90;;;;;;4212120;28;20277;-62
2023/02/26 04:13:35;;;;;;;1.07;0.80;;;1.80;99.90;;;;;;4211660;28;20268;-63
2023/02/26 04:15:36;;;;;;;1.40;0.80;;;1.80;99.90;;;;;;4211980;28;20264;-62
2023/02/26 04:17:37;;;;;;;1.33;0.77;;;1.80;99.90;;;;;;4211070;28;20314;-62
2023/02/26 04:19:38;;;;;;;1.53;1.10;;;1.70;99.90;;;;;;4212127;28;20663;-62
2023/02/26 04:21:39;;;;;;;1.43;1.00;;;1.70;99.90;;;;;;4211003;28;20268;-64
2023/02/26 04:23:40;;;;;;;1.50;1.07;;;1.80;99.90;;;;;;4211995;28;20659;-63
2023/02/26 04:25:41;;;;;;;1.67;1.10;;;1.70;99.90;;;;;;4211128;28;20325;-62
2023/02/26 04:27:43;;;;;;;1.23;0.70;;;1.70;99.90;;;;;;4210609;28;20413;-66
2023/02/26 04:29:44;;;;;;;1.30;0.83;;;1.70;99.90;;;;;;4211065;28;20736;-66
2023/02/26 04:31:45;;;;;;;1.50;0.83;;;1.60;99.90;;;;;;4211349;28;20272;-62
2023/02/26 04:33:46;;;;;;;1.03;0.80;;;1.60;99.90;;;;;;4211509;28;20732;-63
2023/02/26 04:35:47;;;;;;;0.77;0.70;;;1.60;99.90;;;;;;4210950;28;20277;-62
2023/02/26 04:37:48;;;;;;;2.47;1.10;;;1.60;99.90;;;;;;4211771;28;20310;-62
2023/02/26 04:39:49;;;;;;;1.33;1.10;;;1.50;99.90;;;;;;4210640;28;20640;-62
2023/02/26 04:41:51;;;;;;;1.17;0.90;;;1.50;99.90;;;;;;4212262;28;20290;-62
2023/02/26 04:43:52;;;;;;;1.07;0.90;;;1.50;99.90;;;;;;4208889;28;20314;-67
2023/02/26 04:45:53;;;;;;;1.70;1.20;;;1.40;99.90;;;;;;4211256;28;20260;-66
2023/02/26 04:47:54;;;;;;;3.37;1.10;;;1.40;99.90;;;;;;4210665;28;20733;-63
2023/02/26 04:49:56;;;;;;;1.53;0.73;;;1.30;99.90;;;;;;4211326;28;20265;-62
2023/02/26 04:51:57;;;;;;;1.27;1.00;;;1.30;99.90;;;;;;4210510;28;20260;-62
2023/02/26 04:53:58;;;;;;;1.77;0.90;;;1.10;99.90;;;;;;4211881;28;20252;-62
2023/02/26 04:55:59;;;;;;;1.50;0.90;;;1.10;99.90;;;;;;4210611;28;20622;-62
2023/02/26 04:58:00;;;;;;;2.13;1.17;;;1.10;99.90;;;;;;4211541;28;20261;-62
2023/02/26 05:00:06;;;;;;;1.67;0.77;;;1.10;99.90;;;;;;4211225;28;20322;-62
2023/02/26 05:02:07;;;;;;;1.67;0.93;;;1.10;99.90;;;;;;4211266;28;20277;-62
2023/02/26 05:04:08;;;;;;;1.67;1.37;;;1.20;99.90;;;;;;4210940;28;20713;-61
2023/02/26 05:06:10;;;;;;;1.17;1.07;;;1.20;99.90;;;;;;4210839;28;20307;-63
2023/02/26 05:08:11;;;;;;;2.13;1.37;;;1.30;99.90;;;;;;4211360;28;20257;-61
2023/02/26 05:10:12;;;;;;;1.30;1.20;;;1.30;99.90;;;;;;4209211;28;20326;-63
2023/02/26 05:12:13;;;;;;;2.47;1.40;;;1.30;99.90;;;;;;4211987;28;20570;-61
2023/02/26 05:14:15;;;;;;;2.60;1.80;;;1.30;99.90;;;;;;4210342;28;20264;-61
2023/02/26 05:16:16;;;;;;;1.30;1.20;;;1.30;99.90;;;;;;4211454;28;20369;-61
2023/02/26 05:18:18;;;;;;;2.27;1.50;;;1.30;99.90;;;;;;4210214;28;20333;-62
2023/02/26 05:20:19;;;;;;;2.40;1.80;;;1.40;99.90;;;;;;4211307;28;20330;-65
2023/02/26 05:22:20;;;;;;;2.83;1.87;;;1.40;99.90;;;;;;4210283;28;20848;-62
2023/02/26 05:24:22;;;;;;;3.43;1.87;;;1.40;99.90;;;;;;4211647;28;20357;-65
2023/02/26 05:26:23;;;;;;;2.50;1.57;;;1.40;99.90;;;;;;4210281;28;20333;-61
2023/02/26 05:28:25;;;;;;;3.30;1.80;;;1.40;99.90;;;;;;4211292;28;20269;-62
2023/02/26 05:30:26;;;;;;;2.77;1.80;;;1.40;99.90;;;;;;4210423;28;20302;-61
2023/02/26 05:32:28;;;;;;;2.37;2.07;;;1.40;99.90;;;;;;4210987;28;20315;-61
2023/02/26 05:34:29;;;;;;;4.17;2.33;;;1.40;99.90;;;;;;4210412;28;20249;-64
2023/02/26 05:36:30;;;;;;;4.67;2.97;;;1.40;99.90;;;;;;4209929;28;20354;-62
2023/02/26 05:38:32;;;;;;;4.90;3.63;;;1.40;99.90;;;;;;4210461;28;20334;-61
2023/02/26 05:40:33;;;;;;;5.67;2.93;;;1.30;99.90;;;;;;4210097;28;20248;-61
2023/02/26 05:42:34;;;;;;;4.70;2.90;;;1.30;99.90;;;;;;4211853;28;20281;-62
2023/02/26 05:44:35;;;;;;;3.83;2.80;;;1.20;99.90;;;;;;4209842;28;20624;-61
2023/02/26 05:46:36;;;;;;;5.27;3.50;;;1.20;99.90;;;;;;4210849;28;20272;-61
2023/02/26 05:48:37;;;;;;;5.60;3.53;;;1.10;99.90;;;;;;4209953;28;20311;-62
2023/02/26 05:50:39;;;;;;;5.70;3.53;;;1.10;99.90;;;;;;4211210;28;20283;-63
2023/02/26 05:52:40;;;;;;;6.83;3.47;;;1.10;99.90;;;;;;4210063;28;20264;-62
2023/02/26 05:54:41;;;;;;;5.27;3.07;;;1.10;99.90;;;;;;4211142;28;20667;-66
2023/02/26 05:56:42;;;;;;;4.93;3.30;;;1.10;99.90;;;;;;4212976;28;20293;-62
2023/02/26 05:58:43;;;;;;;7.40;4.30;;;1.10;99.90;;;;;;4214541;28;20279;-63
2023/02/26 06:00:44;;;;;;;8.37;5.93;;;1.10;99.90;;;;;;4213530;28;20306;-63
2023/02/26 06:02:46;;;;;;;13.37;7.97;;;1.00;99.90;;;;;;4213969;28;20268;-62
2023/02/26 06:04:47;;;;;;;10.83;7.50;;;1.00;99.90;;;;;;4213959;28;20337;-62
2023/02/26 06:06:48;;;;;;;12.43;7.60;;;1.00;99.90;;;;;;4213544;28;20261;-62
2023/02/26 06:08:49;;;;;;;13.50;8.17;;;1.00;99.90;;;;;;4214249;28;20318;-62
2023/02/26 06:10:51;;;;;;;14.00;9.17;;;1.00;99.90;;;;;;4213185;28;20269;-64
2023/02/26 06:12:52;;;;;;;13.57;8.80;;;1.00;99.90;;;;;;4214729;28;20756;-61
2023/02/26 06:14:53;;;;;;;14.23;8.20;;;1.00;99.90;;;;;;4213124;28;20334;-62
2023/02/26 06:16:54;;;;;;;12.13;7.33;;;1.00;99.90;;;;;;4213543;28;20288;-61
2023/02/26 06:18:55;;;;;;;7.77;5.50;;;0.90;99.90;;;;;;4213021;28;20285;-60
2023/02/26 06:20:57;;;;;;;14.37;8.93;;;0.90;99.90;;;;;;4214147;28;20602;-61
2023/02/26 06:22:58;;;;;;;16.80;8.60;;;1.00;99.90;;;;;;4212521;28;20265;-62
2023/02/26 06:24:59;;;;;;;43.63;21.63;;;1.00;99.90;;;;;;4214035;28;20277;-61
2023/02/26 06:27:00;;;;;;;92.80;40.63;;;1.00;99.90;;;;;;4212970;28;20330;-62
2023/02/26 06:29:01;;;;;;;110.63;52.10;;;1.00;99.90;;;;;;4213265;28;20276;-61
2023/02/26 06:31:02;;;;;;;174.73;82.87;;;1.00;99.90;;;;;;4212838;28;20341;-62
2023/02/26 06:33:04;;;;;;;130.27;71.07;;;1.10;99.90;;;;;;4213334;28;20675;-61
2023/02/26 06:35:05;;;;;;;51.23;30.37;;;1.10;99.90;;;;;;4213009;28;20756;-61
2023/02/26 06:37:06;;;;;;;45.87;25.70;;;1.20;99.90;;;;;;4212974;28;20300;-61
2023/02/26 06:39:07;;;;;;;62.07;34.97;;;1.20;99.90;;;;;;4213344;28;20252;-61
2023/02/26 06:41:09;;;;;;;63.43;35.37;;;1.30;99.90;;;;;;4212730;28;20301;-61
2023/02/26 06:43:10;;;;;;;45.63;24.93;;;1.30;99.90;;;;;;4214336;28;20763;-61
2023/02/26 06:45:11;;;;;;;39.17;22.00;;;1.40;99.90;;;;;;4212577;28;20273;-61
2023/02/26 06:47:12;;;;;;;20.53;12.87;;;1.40;99.90;;;;;;4214017;28;20269;-61
2023/02/26 06:49:14;;;;;;;18.77;13.23;;;1.40;99.90;;;;;;4212240;28;20314;-62
2023/02/26 06:51:15;;;;;;;16.93;11.97;;;1.50;99.90;;;;;;4213220;28;20670;-62
2023/02/26 06:53:17;;;;;;;30.33;19.73;;;1.50;99.90;;;;;;4211074;28;20338;-62
2023/02/26 06:55:20;;;;;;;18.70;12.07;;;1.60;99.90;;;;;;4216906;28;20318;-61
2023/02/26 06:57:21;;;;;;;14.67;10.20;;;1.60;99.90;;;;;;4211832;28;20345;-61
2023/02/26 06:59:23;;;;;;;12.90;8.70;;;1.60;99.90;;;;;;4213665;28;20602;-62
2023/02/26 07:01:24;;;;;;;14.33;9.53;;;1.60;99.90;;;;;;4211636;28;20326;-62
2023/02/26 07:03:26;;;;;;;18.13;11.93;;;1.60;99.90;;;;;;4212989;28;20309;-62
2023/02/26 07:05:27;;;;;;;13.23;7.27;;;1.70;99.90;;;;;;4212637;28;20323;-61
2023/02/26 07:07:28;;;;;;;11.37;6.83;;;1.70;99.90;;;;;;4212426;28;20269;-65
2023/02/26 07:09:29;;;;;;;11.67;7.27;;;1.80;99.90;;;;;;4212753;28;20294;-61
2023/02/26 07:11:30;;;;;;;13.40;8.10;;;1.80;99.90;;;;;;4213245;28;20666;-61
2023/02/26 07:13:31;;;;;;;14.93;7.70;;;1.80;99.90;;;;;;4213053;28;20683;-61
2023/02/26 07:15:32;;;;;;;12.17;7.37;;;1.80;99.90;;;;;;4211794;28;20280;-62
2023/02/26 07:17:33;;;;;;;10.93;7.23;;;1.80;99.90;;;;;;4212888;28;20425;-63
2023/02/26 07:19:35;;;;;;;9.67;5.87;;;1.80;99.90;;;;;;4211251;28;20277;-62
2023/02/26 07:21:36;;;;;;;12.93;6.13;;;1.80;99.90;;;;;;4212669;28;20261;-63
2023/02/26 07:23:37;;;;;;;8.67;5.73;;;1.80;99.90;;;;;;4211222;28;20845;-62
2023/02/26 07:25:38;;;;;;;10.43;7.47;;;1.80;99.90;;;;;;4212680;28;20310;-62
2023/02/26 07:27:39;;;;;;;10.07;6.80;;;1.80;99.90;;;;;;4211552;28;20253;-62
2023/02/26 07:29:40;;;;;;;8.90;5.83;;;1.70;99.90;;;;;;4212958;28;20264;-62
2023/02/26 07:31:42;;;;;;;10.23;5.83;;;1.70;99.90;;;;;;4211974;28;20269;-62
2023/02/26 07:33:43;;;;;;;8.97;5.27;;;1.70;99.90;;;;;;4212504;28;20268;-63
2023/02/26 07:35:44;;;;;;;9.27;6.10;;;1.70;99.90;;;;;;4212010;28;20253;-63
2023/02/26 07:37:45;;;;;;;11.57;7.10;;;1.80;99.90;;;;;;4211804;28;20340;-63
2023/02/26 07:39:46;;;;;;;12.53;7.27;;;1.70;99.90;;;;;;4212230;28;20253;-63
2023/02/26 07:41:47;;;;;;;11.57;7.30;;;1.70;99.90;;;;;;4211757;28;20261;-62
2023/02/26 07:43:49;;;;;;;11.67;7.70;;;1.70;99.90;;;;;;4212776;28;20726;-62
2023/02/26 07:45:51;;;;;;;12.50;8.10;;;1.80;99.90;;;;;;4211264;28;20260;-62
2023/02/26 07:47:53;;;;;;;13.20;8.37;;;1.90;99.90;;;;;;4212817;28;20285;-65
2023/02/26 07:49:55;;;;;;;15.63;9.00;;;2.00;99.90;;;;;;4210944;28;20334;-61
2023/02/26 07:51:56;;;;;;;17.57;10.53;;;2.00;99.90;;;;;;4212660;28;20320;-61
2023/02/26 07:53:57;;;;;;;19.33;10.57;;;2.00;99.90;;;;;;4211216;28;20285;-62
2023/02/26 07:55:58;;;;;;;21.73;11.67;;;2.00;99.90;;;;;;4212579;28;20330;-59
2023/02/26 07:57:59;;;;;;;18.10;10.97;;;2.00;99.90;;;;;;4211330;28;20848;-60
2023/02/26 08:00:01;;;;;;;18.47;10.93;;;2.10;99.90;;;;;;4212037;28;20313;-60
2023/02/26 08:02:02;;;;;;;15.67;9.67;;;2.20;99.90;;;;;;4210782;28;20294;-60
2023/02/26 08:04:04;;;;;;;17.57;10.67;;;2.10;99.90;;;;;;4196655;28;20729;-61
2023/02/26 08:06:06;;;;;;;16.83;10.00;;;2.10;99.90;;;;;;4209490;28;20318;-64
2023/02/26 08:08:07;;;;;;;17.93;10.60;;;2.10;99.90;;;;;;4211294;28;20272;-64
2023/02/26 08:10:09;;;;;;;15.13;9.67;;;2.10;99.90;;;;;;4211592;28;20647;-60
2023/02/26 08:12:11;;;;;;;18.30;10.07;;;2.10;99.90;;;;;;4210565;28;20780;-66
2023/02/26 08:14:12;;;;;;;14.03;9.17;;;2.10;99.90;;;;;;4212265;28;20280;-61
2023/02/26 08:16:13;;;;;;;15.53;9.83;;;2.10;99.90;;;;;;4209268;28;20356;-62
2023/02/26 08:18:15;;;;;;;14.70;9.00;;;2.20;99.90;;;;;;4210955;28;20297;-61
2023/02/26 08:20:16;;;;;;;13.70;8.70;;;2.20;99.90;;;;;;4210444;28;20326;-61
2023/02/26 08:22:17;;;;;;;15.37;9.40;;;2.30;99.90;;;;;;4211723;28;20334;-64
2023/02/26 08:24:19;;;;;;;12.87;8.50;;;2.30;99.90;;;;;;4210195;28;20763;-62
2023/02/26 08:26:20;;;;;;;10.87;8.00;;;2.20;99.90;;;;;;4211335;28;20280;-62
2023/02/26 08:28:21;;;;;;;13.60;8.97;;;2.30;99.90;;;;;;4210685;28;20268;-61
2023/02/26 08:30:22;;;;;;;16.13;9.30;;;2.30;99.90;;;;;;4211935;28;20342;-61
2023/02/26 08:32:25;;;;;;;14.20;8.63;;;2.30;99.90;;;;;;4210300;28;20264;-63
2023/02/26 08:34:26;;;;;;;14.67;9.43;;;2.40;99.90;;;;;;4209759;28;20382;-67
2023/02/26 08:36:28;;;;;;;14.63;9.17;;;2.50;99.90;;;;;;4210427;28;20322;-62
2023/02/26 08:38:29;;;;;;;16.10;9.87;;;2.50;99.90;;;;;;4210613;28;20304;-63
2023/02/26 08:40:30;;;;;;;16.57;10.37;;;2.50;99.90;;;;;;4210792;28;20406;-62
2023/02/26 08:42:32;;;;;;;28.00;14.00;;;2.50;99.90;;;;;;4210758;28;20284;-68
2023/02/26 08:44:33;;;;;;;26.17;14.77;;;2.60;99.90;;;;;;4211573;28;20268;-63
2023/02/26 08:46:34;;;;;;;27.30;15.60;;;2.60;99.90;;;;;;4210337;28;20253;-63
2023/02/26 08:48:35;;;;;;;23.07;14.03;;;2.60;99.90;;;;;;4211083;28;20294;-63
2023/02/26 08:50:37;;;;;;;17.60;10.00;;;2.70;99.90;;;;;;4209931;28;20265;-61
2023/02/26 08:52:38;;;;;;;16.57;9.70;;;2.80;99.90;;;;;;4211590;28;20330;-61
2023/02/26 08:54:40;;;;;;;16.70;10.50;;;2.90;99.90;;;;;;4209928;28;20682;-63
2023/02/26 08:56:41;;;;;;;17.30;9.90;;;2.90;99.90;;;;;;4211071;28;20861;-60
2023/02/26 08:58:42;;;;;;;27.03;14.53;;;3.00;99.90;;;;;;4208398;28;20350;-63
2023/02/26 09:00:44;;;;;;;33.73;17.97;;;3.00;99.90;;;;;;4211621;28;20273;-62
2023/02/26 09:02:45;;;;;;;31.07;16.67;;;3.10;99.90;;;;;;4209881;28;20272;-63
2023/02/26 09:04:46;;;;;;;22.80;12.77;;;3.10;99.90;;;;;;4211242;28;20273;-62
2023/02/26 09:06:47;;;;;;;23.57;14.53;;;3.20;99.90;;;;;;4209042;28;20756;-65
2023/02/26 09:08:48;;;;;;;43.90;21.97;;;3.20;99.90;;;;;;4210366;28;20280;-63
2023/02/26 09:10:50;;;;;;;31.60;16.73;;;3.20;99.90;;;;;;4210764;28;20264;-63
2023/02/26 09:12:51;;;;;;;20.00;12.23;;;3.20;99.90;;;;;;4210852;28;20264;-63
2023/02/26 09:14:52;;;;;;;21.70;12.67;;;3.20;99.90;;;;;;4208834;28;20264;-63
2023/02/26 09:16:53;;;;;;;17.43;11.40;;;3.30;99.90;;;;;;4209783;28;20264;-67
2023/02/26 09:18:55;;;;;;;14.70;9.40;;;3.30;99.90;;;;;;4211308;28;20337;-64
2023/02/26 09:20:56;;;;;;;15.10;10.77;;;3.40;99.90;;;;;;4209844;28;20377;-61
2023/02/26 09:22:58;;;;;;;22.00;11.97;;;3.50;99.90;;;;;;4210997;28;20310;-64
2023/02/26 09:24:59;;;;;;;21.70;11.43;;;3.50;99.90;;;;;;4210266;28;20364;-61
2023/02/26 09:27:02;;;;;;;16.37;9.00;;;3.50;99.90;;;;;;4211283;28;20253;-63
2023/02/26 09:29:03;;;;;;;12.37;8.47;;;3.50;99.90;;;;;;4210206;28;20322;-62
2023/02/26 09:31:05;;;;;;;11.10;7.70;;;3.50;99.90;;;;;;4213271;28;20294;-61
2023/02/26 09:33:08;;;;;;;12.37;8.10;;;3.60;99.90;;;;;;4213268;28;20256;-62
2023/02/26 09:35:10;;;;;;;10.03;7.70;;;3.50;99.90;;;;;;4214144;28;20268;-63
2023/02/26 09:37:11;;;;;;;13.73;8.73;;;3.50;99.90;;;;;;4213151;28;20333;-63
2023/02/26 09:39:12;;;;;;;15.57;9.70;;;3.50;99.90;;;;;;4214066;28;20683;-65
2023/02/26 09:41:25;;;;;;;17.77;10.97;;;3.60;99.90;;;;;;4213567;28;20736;-67
2023/02/26 09:43:48;;;;;;;33.47;18.67;;;3.60;99.90;;;;;;4212549;28;20272;-62
2023/02/26 09:45:50;;;;;;;22.20;14.63;;;3.70;99.90;;;;;;4213136;28;20269;-60
2023/02/26 09:47:53;;;;;;;17.70;12.67;;;3.80;99.90;;;;;;4212815;28;20281;-61
2023/02/26 09:50:15;;;;;;;20.03;13.30;;;3.80;99.90;;;;;;4213314;28;20257;-61
2023/02/26 09:52:31;;;;;;;21.60;13.27;;;3.80;99.90;;;;;;4213749;28;20651;-62
2023/02/26 09:54:43;;;;;;;20.03;13.13;;;3.80;99.90;;;;;;4211883;28;20269;-60
2023/02/26 09:56:45;;;;;;;16.63;11.57;;;3.80;99.90;;;;;;4213035;28;20248;-62
2023/02/26 09:58:46;;;;;;;17.37;12.47;;;3.80;99.90;;;;;;4213077;28;20297;-62
2023/02/26 10:01:09;;;;;;;22.20;13.80;;;3.90;99.90;;;;;;4213416;28;20333;-69
2023/02/26 10:03:32;;;;;;;20.07;12.70;;;4.00;99.90;;;;;;4212595;28;20370;-62
2023/02/26 10:06:12;;;;;;;18.33;11.93;;;4.00;99.90;;;;;;4213890;28;20260;-63
2023/02/26 10:08:18;;;;;;;17.90;12.00;;;4.10;99.90;;;;;;4212825;28;20273;-62
2023/02/26 10:10:28;;;;;;;16.97;11.70;;;4.20;99.90;;;;;;4213678;28;20273;-63
2023/02/26 10:12:34;;;;;;;17.53;12.50;;;4.20;99.90;;;;;;4212751;28;20748;-64
2023/02/26 10:14:56;;;;;;;18.17;11.93;;;4.30;99.90;;;;;;4214194;28;20406;-64
2023/02/26 10:17:04;;;;;;;17.73;11.67;;;4.40;99.90;;;;;;4195800;28;20358;-64
2023/02/26 10:19:15;;;;;;;20.33;13.17;;;4.40;99.90;;;;;;4196959;28;20281;-65
2023/02/26 10:21:28;;;;;;;21.80;14.80;;;4.40;99.90;;;;;;4199350;28;20280;-62
2023/02/26 10:23:49;;;;;;;20.33;13.57;;;4.40;99.90;;;;;;4212757;28;20330;-63
2023/02/26 10:25:57;;;;;;;16.38;11.05;;;4.40;99.90;;;;;;4212090;28;20284;-67
2023/02/26 10:28:27;;;;;;;18.93;12.77;;;4.40;99.90;;;;;;4213552;28;20024;-63
2023/02/26 10:30:49;;;;;;;18.10;11.97;;;4.50;99.90;;;;;;4208619;28;20268;-64
2023/02/26 10:33:11;;;;;;;18.37;11.30;;;4.50;99.90;;;;;;4213333;28;20818;-63
2023/02/26 10:35:17;;;;;;;18.03;11.93;;;4.50;99.90;;;;;;4212777;28;20333;-64
2023/02/26 10:37:37;;;;;;;17.40;11.30;;;4.50;99.90;;;;;;4212944;28;20035;-63
2023/02/26 10:40:05;;;;;;;17.23;11.23;;;4.50;99.90;;;;;;4212991;28;20260;-63
2023/02/26 10:42:16;;;;;;;18.53;11.67;;;4.50;99.90;;;;;;4209530;28;20323;-61
2023/02/26 10:44:21;;;;;;;17.42;11.57;;;4.40;99.90;;;;;;4213595;28;20097;-62
2023/02/26 10:46:45;;;;;;;17.23;11.00;;;4.40;99.90;;;;;;4212080;28;20067;-63
2023/02/26 10:49:07;;;;;;;19.80;11.83;;;4.40;99.90;;;;;;4213117;28;20337;-62
2023/02/26 10:51:14;;;;;;;18.87;12.67;;;4.30;99.90;;;;;;4211845;28;20032;-62
2023/02/26 10:53:15;;;;;;;18.70;11.93;;;4.30;99.90;;;;;;4213073;28;20802;-61
2023/02/26 10:55:26;;;;;;;13.37;9.20;;;4.20;99.90;;;;;;4211649;28;20060;-62
2023/02/26 10:57:33;;;;;;;17.40;10.38;;;4.00;99.90;;;;;;4213297;28;20736;-62
2023/02/26 10:59:34;;;;;;;18.00;11.47;;;3.90;99.90;;;;;;4211991;28;20036;-62